createdAt,value
2019-01-15T00:01:56.928Z,98.70
2019-01-15T00:04:27.158Z,98.80
2019-01-15T00:06:57.533Z,98.70
2019-01-15T00:09:27.849Z,98.80
2019-01-15T00:11:58.132Z,98.70
2019-01-15T00:14:28.474Z,98.80
2019-01-15T00:16:58.733Z,98.80
2019-01-15T00:19:28.946Z,98.90
2019-01-15T00:21:59.381Z,98.80
2019-01-15T00:24:29.647Z,98.90
2019-01-15T00:26:59.970Z,98.80
2019-01-15T00:29:30.602Z,98.80
2019-01-15T00:32:00.858Z,99.00
2019-01-15T00:34:31.156Z,99.10
2019-01-15T00:37:01.443Z,99.00
2019-01-15T00:39:31.994Z,99.50
2019-01-15T00:42:02.286Z,99.10
2019-01-15T00:44:32.636Z,99.10
2019-01-15T00:47:03.018Z,99.20
2019-01-15T00:49:33.274Z,99.20
2019-01-15T00:52:03.868Z,99.20
2019-01-15T00:54:34.483Z,99.20
2019-01-15T00:57:08.690Z,99.30
2019-01-15T00:59:39.019Z,99.30
2019-01-15T01:02:09.323Z,99.40
2019-01-15T01:04:39.630Z,99.50
2019-01-15T01:07:09.887Z,99.80
2019-01-15T01:09:40.137Z,99.90
2019-01-15T01:12:10.448Z,99.60
2019-01-15T01:14:41.071Z,99.90
2019-01-15T01:17:11.351Z,99.70
2019-01-15T01:19:41.722Z,99.90
2019-01-15T01:22:12.268Z,99.70
2019-01-15T01:24:42.614Z,99.80
2019-01-15T01:27:13.212Z,99.90
2019-01-15T01:29:43.485Z,99.90
2019-01-15T01:32:13.927Z,99.90
2019-01-15T01:34:44.321Z,99.90
2019-01-15T01:37:14.581Z,99.90
2019-01-15T01:39:44.876Z,99.90
2019-01-15T01:42:15.341Z,99.90
2019-01-15T01:44:45.885Z,99.90
2019-01-15T01:47:16.190Z,99.90
2019-01-15T01:49:46.499Z,99.90
2019-01-15T01:52:16.786Z,99.90
2019-01-15T01:54:47.171Z,99.90
2019-01-15T01:57:17.449Z,99.90
2019-01-15T01:59:47.840Z,99.90
2019-01-15T02:02:18.115Z,99.90
2019-01-15T02:04:48.458Z,99.90
2019-01-15T02:07:18.722Z,99.90
2019-01-15T02:09:49.322Z,99.90
2019-01-15T02:12:19.602Z,99.90
2019-01-15T02:14:49.873Z,99.90
2019-01-15T02:17:20.229Z,99.90
2019-01-15T02:19:50.516Z,99.90
2019-01-15T02:22:20.796Z,99.90
2019-01-15T02:24:51.109Z,99.90
2019-01-15T02:27:21.739Z,99.90
2019-01-15T02:29:52.672Z,99.90
2019-01-15T02:32:22.978Z,99.90
2019-01-15T02:34:53.238Z,99.90
2019-01-15T02:37:23.591Z,99.90
2019-01-15T02:39:54.055Z,99.90
2019-01-15T02:42:24.310Z,99.90
2019-01-15T02:44:54.848Z,99.90
2019-01-15T02:47:25.226Z,99.90
2019-01-15T02:49:55.623Z,99.90
2019-01-15T02:52:25.888Z,99.90
2019-01-15T02:54:56.550Z,99.90
2019-01-15T02:57:26.852Z,99.90
2019-01-15T02:59:57.114Z,99.90
2019-01-15T03:02:27.443Z,99.90
2019-01-15T03:04:57.733Z,99.90
2019-01-15T03:07:28.019Z,99.90
2019-01-15T03:09:59.395Z,99.90
2019-01-15T03:12:30.255Z,99.90
2019-01-15T03:15:00.546Z,99.90
2019-01-15T03:17:31.051Z,99.90
2019-01-15T03:20:01.319Z,99.90
2019-01-15T03:22:31.612Z,99.90
2019-01-15T03:25:01.886Z,99.90
2019-01-15T03:27:32.219Z,99.90
2019-01-15T03:30:02.929Z,99.90
2019-01-15T03:32:33.737Z,99.90
2019-01-15T03:35:04.074Z,99.90
2019-01-15T03:37:34.342Z,99.90
2019-01-15T03:40:06.263Z,99.90
2019-01-15T03:42:36.542Z,99.90
2019-01-15T03:45:07.312Z,99.90
2019-01-15T03:47:37.788Z,99.90
2019-01-15T03:50:08.365Z,99.90
2019-01-15T03:52:38.729Z,99.90
2019-01-15T03:55:09.695Z,99.90
2019-01-15T03:57:39.920Z,99.90
2019-01-15T04:00:22.616Z,99.90
2019-01-15T04:02:53.029Z,99.90
2019-01-15T04:05:23.314Z,99.90
2019-01-15T04:08:00.873Z,99.90
2019-01-15T04:10:31.133Z,99.90
2019-01-15T04:13:01.384Z,99.90
2019-01-15T04:15:31.692Z,99.90
2019-01-15T04:18:02.012Z,99.90
2019-01-15T04:20:33.480Z,99.90
2019-01-15T04:23:04.905Z,99.90
2019-01-15T04:25:35.252Z,99.90
2019-01-15T04:28:05.553Z,99.90
2019-01-15T04:30:35.836Z,99.90
2019-01-15T04:33:06.198Z,99.90
2019-01-15T04:35:36.437Z,99.90
2019-01-15T04:38:06.726Z,99.90
2019-01-15T04:40:37.059Z,99.90
2019-01-15T04:43:07.310Z,99.90
2019-01-15T04:45:37.576Z,99.90
2019-01-15T04:48:07.899Z,99.90
2019-01-15T04:50:38.298Z,99.90
2019-01-15T04:53:08.578Z,99.90
2019-01-15T04:55:38.927Z,99.90
2019-01-15T04:58:09.129Z,99.90
2019-01-15T05:00:39.401Z,99.90
2019-01-15T05:03:12.902Z,99.90
2019-01-15T05:05:43.372Z,99.90
2019-01-15T05:08:13.651Z,99.90
2019-01-15T05:10:43.969Z,99.90
2019-01-15T05:13:14.355Z,99.90
2019-01-15T05:15:44.627Z,99.90
2019-01-15T05:18:15.029Z,99.90
2019-01-15T05:20:45.303Z,99.90
2019-01-15T05:23:15.850Z,99.90
2019-01-15T05:25:46.229Z,99.90
2019-01-15T05:28:17.220Z,99.90
2019-01-15T05:30:47.490Z,99.90
2019-01-15T05:33:18.223Z,99.90
2019-01-15T05:35:48.494Z,99.90
2019-01-15T05:38:18.865Z,99.90
2019-01-15T05:40:49.304Z,99.90
2019-01-15T05:43:19.706Z,99.90
2019-01-15T05:45:51.664Z,99.90
2019-01-15T05:48:26.633Z,99.90
2019-01-15T05:51:14.568Z,99.90
2019-01-15T05:53:44.915Z,99.90
2019-01-15T05:56:15.198Z,99.90
2019-01-15T05:58:45.479Z,99.90
2019-01-15T06:01:15.765Z,99.90
2019-01-15T06:03:45.984Z,99.90
2019-01-15T06:06:16.292Z,99.90
2019-01-15T06:08:46.543Z,99.90
2019-01-15T06:11:16.783Z,99.90
2019-01-15T06:13:47.136Z,99.90
2019-01-15T06:16:17.725Z,99.90
2019-01-15T06:18:48.003Z,99.90
2019-01-15T06:21:18.388Z,99.90
2019-01-15T06:23:48.630Z,99.90
2019-01-15T06:26:18.951Z,99.90
2019-01-15T06:28:49.437Z,99.90
2019-01-15T06:31:21.093Z,99.90
2019-01-15T06:33:51.753Z,99.90
2019-01-15T06:36:22.063Z,99.90
2019-01-15T06:38:52.367Z,99.90
2019-01-15T06:41:22.628Z,99.90
2019-01-15T06:43:52.961Z,99.90
2019-01-15T06:46:23.191Z,99.90
2019-01-15T06:48:53.538Z,99.90
2019-01-15T06:51:24.030Z,99.90
2019-01-15T06:53:54.343Z,99.90
2019-01-15T06:56:24.693Z,99.90
2019-01-15T06:58:55.015Z,99.90
2019-01-15T07:01:25.306Z,99.90
2019-01-15T07:03:55.714Z,99.90
2019-01-15T07:06:26.020Z,99.90
2019-01-15T07:08:56.473Z,99.90
2019-01-15T07:11:26.760Z,99.90
2019-01-15T07:13:57.253Z,99.90
2019-01-15T07:16:27.841Z,99.90
2019-01-15T07:18:58.321Z,99.90
2019-01-15T07:21:29.028Z,99.90
2019-01-15T07:23:59.320Z,99.90
2019-01-15T07:26:29.495Z,99.90
2019-01-15T07:28:59.770Z,99.90
2019-01-15T07:31:30.084Z,99.90
2019-01-15T07:34:00.334Z,99.90
2019-01-15T07:36:30.618Z,99.90
2019-01-15T07:39:00.979Z,99.90
2019-01-15T07:41:31.340Z,99.90
2019-01-15T07:44:04.453Z,99.90
2019-01-15T07:46:33.722Z,99.90
2019-01-15T07:49:04.142Z,99.90
2019-01-15T07:51:34.465Z,99.90
2019-01-15T07:54:05.043Z,99.90
2019-01-15T07:56:35.391Z,99.90
2019-01-15T07:59:05.739Z,99.90
2019-01-15T08:01:36.044Z,99.90
2019-01-15T08:04:06.324Z,99.90
2019-01-15T08:06:36.615Z,99.90
2019-01-15T08:09:11.842Z,99.90
2019-01-15T08:11:43.018Z,99.90
2019-01-15T08:14:13.339Z,99.90
2019-01-15T08:16:43.669Z,99.90
2019-01-15T08:19:14.387Z,99.90
2019-01-15T08:21:44.669Z,99.90
2019-01-15T08:24:14.996Z,99.90
2019-01-15T08:26:45.313Z,99.90
2019-01-15T08:29:15.625Z,99.90
2019-01-15T08:31:45.941Z,99.90
2019-01-15T08:34:16.201Z,99.90
2019-01-15T08:36:46.530Z,99.90
2019-01-15T08:39:17.062Z,99.90
2019-01-15T08:41:47.670Z,99.90
2019-01-15T08:44:19.350Z,99.90
2019-01-15T08:46:49.928Z,99.90
2019-01-15T08:49:20.494Z,99.90
2019-01-15T08:51:50.905Z,99.90
2019-01-15T08:54:21.597Z,99.90
2019-01-15T08:56:51.981Z,99.90
2019-01-15T08:59:22.736Z,99.90
2019-01-15T09:01:53.169Z,99.90
2019-01-15T09:04:23.517Z,99.90
2019-01-15T09:06:53.833Z,99.90
2019-01-15T09:09:24.312Z,99.90
2019-01-15T09:11:54.549Z,99.90
2019-01-15T09:14:26.857Z,99.90
2019-01-15T09:16:57.051Z,99.90
2019-01-15T09:19:27.473Z,99.90
2019-01-15T09:21:57.741Z,99.90
2019-01-15T09:24:28.091Z,99.90
2019-01-15T09:26:58.425Z,99.90
2019-01-15T09:29:28.734Z,99.90
2019-01-15T09:31:59.050Z,99.90
2019-01-15T09:34:29.551Z,99.90
2019-01-15T09:36:59.866Z,99.90
2019-01-15T09:39:30.165Z,99.90
2019-01-15T09:42:00.955Z,99.90
2019-01-15T09:44:34.189Z,99.90
2019-01-15T09:47:03.355Z,99.90
2019-01-15T09:49:34.028Z,99.90
2019-01-15T09:52:04.450Z,99.90
2019-01-15T09:54:34.747Z,99.90
2019-01-15T09:57:05.307Z,99.90
2019-01-15T09:59:35.701Z,99.90
2019-01-15T10:02:06.314Z,99.90
2019-01-15T10:04:36.607Z,99.90
2019-01-15T10:07:06.942Z,99.90
2019-01-15T10:09:37.325Z,99.90
2019-01-15T10:12:07.561Z,99.90
2019-01-15T10:14:41.475Z,99.90
2019-01-15T10:17:09.993Z,99.90
2019-01-15T10:19:40.264Z,99.90
2019-01-15T10:22:11.053Z,99.90
2019-01-15T10:24:42.003Z,99.90
2019-01-15T10:27:13.277Z,99.90
2019-01-15T10:29:44.290Z,99.90
2019-01-15T10:32:50.038Z,99.90
2019-01-15T10:36:03.951Z,99.90
2019-01-15T10:38:35.127Z,99.90
2019-01-15T10:41:05.636Z,99.90
2019-01-15T10:43:36.511Z,99.90
2019-01-15T10:46:07.692Z,99.90
2019-01-15T10:48:38.039Z,99.90
2019-01-15T10:51:08.457Z,99.90
2019-01-15T10:53:38.789Z,99.90
2019-01-15T10:56:09.114Z,99.90
2019-01-15T10:58:39.786Z,99.90
2019-01-15T11:01:10.103Z,99.90
2019-01-15T11:03:40.436Z,99.90
2019-01-15T11:06:10.812Z,99.90
2019-01-15T11:08:41.121Z,99.90
2019-01-15T11:11:11.414Z,99.90
2019-01-15T11:13:41.973Z,99.90
2019-01-15T11:16:12.326Z,99.90
2019-01-15T11:18:42.686Z,99.90
2019-01-15T11:21:12.967Z,99.90
2019-01-15T11:23:43.296Z,99.90
2019-01-15T11:26:13.564Z,99.90
2019-01-15T11:28:43.993Z,99.90
2019-01-15T11:31:14.315Z,99.90
2019-01-15T11:33:44.591Z,99.90
2019-01-15T11:36:14.920Z,99.90
2019-01-15T11:38:45.276Z,99.90
2019-01-15T11:41:15.749Z,99.90
2019-01-15T11:43:46.081Z,99.90
2019-01-15T11:46:16.468Z,99.90
2019-01-15T11:50:43.110Z,99.90
2019-01-15T11:52:09.433Z,99.90
2019-01-15T11:54:39.678Z,99.90
2019-01-15T11:57:10.289Z,99.90
2019-01-15T11:59:40.727Z,99.90
2019-01-15T12:02:26.772Z,99.90
2019-01-15T12:05:28.509Z,99.90
2019-01-15T12:08:24.708Z,99.90
2019-01-15T12:11:14.167Z,99.90
2019-01-15T12:14:09.440Z,99.90
2019-01-15T12:16:58.712Z,99.90
2019-01-15T12:19:53.775Z,99.90
2019-01-15T12:22:36.030Z,99.90
2019-01-15T12:25:24.018Z,99.90
2019-01-15T12:28:13.039Z,99.90
2019-01-15T12:30:58.589Z,99.90
2019-01-15T12:33:46.584Z,99.90
2019-01-15T12:36:34.724Z,99.90
2019-01-15T12:39:29.194Z,99.90
2019-01-15T12:42:21.207Z,99.90
2019-01-15T12:45:09.075Z,99.90
2019-01-15T12:47:58.256Z,99.90
2019-01-15T12:50:36.101Z,99.90
2019-01-15T12:53:24.122Z,99.90
2019-01-15T12:56:12.332Z,99.90
2019-01-15T12:59:13.614Z,99.90
2019-01-15T13:02:03.029Z,99.90
2019-01-15T13:04:58.887Z,99.90
2019-01-15T13:07:39.735Z,99.90
2019-01-15T13:10:31.578Z,99.90
2019-01-15T13:13:11.633Z,99.90
2019-01-15T13:15:59.759Z,99.90
2019-01-15T13:18:48.940Z,99.90
2019-01-15T13:21:47.296Z,99.90
2019-01-15T13:24:35.466Z,99.90
2019-01-15T13:27:28.984Z,99.90
2019-01-15T13:30:10.236Z,99.90
2019-01-15T13:33:12.909Z,99.90
2019-01-15T13:36:00.213Z,99.90
2019-01-15T13:38:48.185Z,99.90
2019-01-15T13:41:37.430Z,99.90
2019-01-15T13:44:25.158Z,99.90
2019-01-15T13:47:10.354Z,99.90
2019-01-15T13:50:00.579Z,99.90
2019-01-15T13:52:41.408Z,99.90
2019-01-15T13:55:48.848Z,99.90
2019-01-15T13:58:41.232Z,99.90
2019-01-15T14:01:33.463Z,99.90
2019-01-15T14:04:21.699Z,99.90
2019-01-15T14:07:09.091Z,99.90
2019-01-15T14:09:58.372Z,99.90
2019-01-15T14:13:02.855Z,99.90
2019-01-15T14:16:04.680Z,99.90
2019-01-15T14:18:52.687Z,99.90
2019-01-15T14:21:42.001Z,99.90
2019-01-15T14:24:27.745Z,99.90
2019-01-15T14:27:11.651Z,99.90
2019-01-15T14:29:57.482Z,99.90
2019-01-15T14:32:46.185Z,99.90
2019-01-15T14:35:44.547Z,99.90
2019-01-15T14:38:23.861Z,99.90
2019-01-15T14:41:21.372Z,99.90
2019-01-15T14:44:21.024Z,99.90
2019-01-15T14:47:09.075Z,99.90
2019-01-15T14:49:57.231Z,99.90
2019-01-15T14:52:49.586Z,99.90
2019-01-15T14:55:42.777Z,99.90
2019-01-15T14:58:30.891Z,99.90
2019-01-15T15:01:19.226Z,99.90
2019-01-15T15:04:07.289Z,99.90
2019-01-15T15:07:03.506Z,99.90
2019-01-15T15:09:47.989Z,99.90
2019-01-15T15:12:43.397Z,99.90
2019-01-15T15:15:35.650Z,99.90
2019-01-15T15:18:23.096Z,99.90
2019-01-15T15:21:02.964Z,99.90
2019-01-15T15:23:52.242Z,99.90
2019-01-15T15:26:50.826Z,99.90
2019-01-15T15:29:35.058Z,99.90
2019-01-15T15:32:23.271Z,99.90
2019-01-15T15:35:06.912Z,99.90
2019-01-15T15:37:54.698Z,99.90
2019-01-15T15:40:48.573Z,99.90
2019-01-15T15:43:29.052Z,99.90
2019-01-15T15:46:33.778Z,99.90
2019-01-15T15:49:20.351Z,99.90
2019-01-15T15:52:22.612Z,99.90
2019-01-15T15:55:07.778Z,99.90
2019-01-15T15:58:09.789Z,99.90
2019-01-15T16:01:05.162Z,99.90
2019-01-15T16:03:49.794Z,99.90
2019-01-15T16:06:36.226Z,99.90
2019-01-15T16:09:35.471Z,99.90
2019-01-15T16:12:31.509Z,99.90
2019-01-15T16:15:19.408Z,99.90
2019-01-15T16:18:06.972Z,99.90
2019-01-15T16:20:55.295Z,99.90
2019-01-15T16:23:50.384Z,99.90
2019-01-15T16:26:38.259Z,99.90
2019-01-15T16:29:30.627Z,99.90
2019-01-15T16:32:19.887Z,99.90
2019-01-15T16:35:01.813Z,99.90
2019-01-15T16:37:56.852Z,99.90
2019-01-15T16:40:43.689Z,99.90
2019-01-15T16:43:31.827Z,99.90
2019-01-15T16:46:15.405Z,99.90
2019-01-15T16:49:10.819Z,99.90
2019-01-15T16:52:06.139Z,99.90
2019-01-15T16:54:45.642Z,99.90
2019-01-15T16:57:45.372Z,99.90
2019-01-15T17:00:32.750Z,99.90
2019-01-15T17:03:26.413Z,99.90
2019-01-15T17:06:06.088Z,99.90
2019-01-15T17:08:53.908Z,99.90
2019-01-15T17:11:46.069Z,99.90
2019-01-15T17:14:38.072Z,99.90
2019-01-15T17:17:26.179Z,99.90
2019-01-15T17:20:14.390Z,99.90
2019-01-15T17:23:19.027Z,99.90
2019-01-15T17:25:59.851Z,99.90
2019-01-15T17:28:48.174Z,99.90
2019-01-15T17:31:37.369Z,99.90
2019-01-15T17:34:29.832Z,99.90
2019-01-15T17:37:18.167Z,99.90
2019-01-15T17:40:00.175Z,99.90
2019-01-15T17:42:43.810Z,99.90
2019-01-15T17:45:32.965Z,99.90
2019-01-15T17:48:13.163Z,99.90
2019-01-15T17:51:01.103Z,99.90
2019-01-15T17:53:49.247Z,99.90
2019-01-15T17:56:38.535Z,99.90
2019-01-15T17:59:26.590Z,99.90
2019-01-15T18:02:14.944Z,99.90
2019-01-15T18:05:09.110Z,99.90
2019-01-15T18:07:58.575Z,99.90
2019-01-15T18:10:46.360Z,99.90
2019-01-15T18:13:34.205Z,99.90
2019-01-15T18:16:22.759Z,99.90
2019-01-15T18:19:15.485Z,99.90
2019-01-15T18:22:10.112Z,99.90
2019-01-15T18:24:59.293Z,99.90
2019-01-15T18:27:45.726Z,99.90
2019-01-15T18:30:30.849Z,99.90
2019-01-15T18:33:32.291Z,99.90
2019-01-15T18:36:20.819Z,99.90
2019-01-15T18:39:04.978Z,99.90
2019-01-15T18:41:53.044Z,99.90
2019-01-15T18:44:38.912Z,99.90
2019-01-15T18:47:27.106Z,99.90
2019-01-15T18:50:14.882Z,99.90
2019-01-15T18:53:07.275Z,99.90
2019-01-15T18:55:54.635Z,99.90
2019-01-15T18:58:43.838Z,99.90
2019-01-15T19:01:34.957Z,99.90
2019-01-15T19:04:24.186Z,99.90
2019-01-15T19:07:25.887Z,99.90
2019-01-15T19:10:14.571Z,99.90
2019-01-15T19:13:04.725Z,99.90
2019-01-15T19:16:04.145Z,99.90
2019-01-15T19:19:05.862Z,99.90
2019-01-15T19:21:54.195Z,99.90
2019-01-15T19:24:51.865Z,99.90
2019-01-15T19:27:40.567Z,99.90
2019-01-15T19:30:31.288Z,99.90
2019-01-15T19:33:29.454Z,99.90
2019-01-15T19:36:28.520Z,99.90
2019-01-15T19:39:16.087Z,99.90
2019-01-15T19:42:11.477Z,99.90
2019-01-15T19:45:15.272Z,99.90
2019-01-15T19:48:20.118Z,99.90
2019-01-15T19:51:25.426Z,99.90
2019-01-15T19:54:14.999Z,99.90
2019-01-15T19:57:04.471Z,99.90
2019-01-15T19:59:55.236Z,99.90
2019-01-15T20:02:47.615Z,99.90
2019-01-15T20:05:31.156Z,99.90
2019-01-15T20:08:21.019Z,99.90
2019-01-15T20:11:25.838Z,99.90
2019-01-15T20:14:14.917Z,99.90
2019-01-15T20:17:18.250Z,99.90
2019-01-15T20:20:16.683Z,99.90
2019-01-15T20:23:01.435Z,99.90
2019-01-15T20:25:54.112Z,99.90
2019-01-15T20:28:42.255Z,99.90
2019-01-15T20:31:30.089Z,99.90
2019-01-15T20:34:09.791Z,99.90
2019-01-15T20:36:58.525Z,99.90
2019-01-15T20:39:56.848Z,99.90
2019-01-15T20:42:41.467Z,99.90
2019-01-15T20:45:22.952Z,99.90
2019-01-15T20:48:10.947Z,99.90
2019-01-15T20:51:03.855Z,99.90
2019-01-15T20:53:53.103Z,99.90
2019-01-15T20:56:57.646Z,99.90
2019-01-15T20:59:35.733Z,99.90
2019-01-15T21:02:37.368Z,99.90
2019-01-15T21:05:26.949Z,99.90
2019-01-15T21:08:22.079Z,99.90
2019-01-15T21:11:10.152Z,99.90
2019-01-15T21:13:58.105Z,99.90
2019-01-15T21:16:46.144Z,99.90
2019-01-15T21:19:54.167Z,99.90
2019-01-15T21:22:44.601Z,99.90
2019-01-15T21:25:43.024Z,99.90
2019-01-15T21:28:31.688Z,99.90
2019-01-15T21:31:19.614Z,99.90
2019-01-15T21:34:21.089Z,99.90
2019-01-15T21:37:09.509Z,99.90
2019-01-15T21:39:57.163Z,99.90
2019-01-15T21:42:49.216Z,99.90
2019-01-15T21:45:41.391Z,99.90
2019-01-15T21:48:37.961Z,99.90
2019-01-15T21:51:33.142Z,99.90
2019-01-15T21:54:31.504Z,99.90
2019-01-15T21:57:09.597Z,99.90
2019-01-15T21:59:59.188Z,99.90
2019-01-15T22:02:48.398Z,99.90
2019-01-15T22:05:42.405Z,99.90
2019-01-15T22:08:34.604Z,99.90
2019-01-15T22:11:12.766Z,99.90
2019-01-15T22:14:10.885Z,99.90
2019-01-15T22:17:00.153Z,99.90
2019-01-15T22:19:48.112Z,99.90
2019-01-15T22:22:36.850Z,99.90
2019-01-15T22:25:26.416Z,99.90
2019-01-15T22:28:15.528Z,99.90
2019-01-15T22:31:03.483Z,99.90
2019-01-15T22:33:55.901Z,99.90
2019-01-15T22:36:48.301Z,99.90
2019-01-15T22:39:37.147Z,99.90
2019-01-15T22:42:26.323Z,99.90
2019-01-15T22:45:30.945Z,99.90
2019-01-15T22:48:18.789Z,99.90
2019-01-15T22:51:14.902Z,99.90
2019-01-15T22:53:57.220Z,99.90
2019-01-15T22:56:34.875Z,99.90
2019-01-15T22:59:29.648Z,99.90
2019-01-15T23:02:08.561Z,99.90
2019-01-15T23:05:09.625Z,99.90
2019-01-15T23:08:14.327Z,99.90
2019-01-15T23:11:03.542Z,99.90
2019-01-15T23:13:40.825Z,99.90
2019-01-15T23:16:17.801Z,99.90
2019-01-15T23:19:13.536Z,99.90
2019-01-15T23:22:03.654Z,99.90
2019-01-15T23:24:51.689Z,99.90
2019-01-15T23:27:39.749Z,99.90
2019-01-15T23:30:32.175Z,99.90
2019-01-15T23:33:11.625Z,99.90
2019-01-15T23:35:59.234Z,99.90
2019-01-15T23:39:00.268Z,99.90
2019-01-15T23:41:52.344Z,99.90
2019-01-15T23:44:29.883Z,99.90
2019-01-15T23:47:18.071Z,99.90
2019-01-15T23:50:09.977Z,99.90
2019-01-15T23:53:08.407Z,99.90
2019-01-15T23:55:55.296Z,99.90
2019-01-15T23:58:50.717Z,99.90
